sensor_id;sensor_type;location;lat;lon;timestamp;temperature;humidity
13835;DHT22;6988;52.614;13.500;2022-09-01T00:01:23;14.70;99.90
13835;DHT22;6988;52.614;13.500;2022-09-01T00:06:16;14.80;99.90
13835;DHT22;6988;52.614;13.500;2022-09-01T00:11:11;14.80;99.90
13835;DHT22;6988;52.614;13.500;2022-09-01T00:16:03;14.70;99.90
13835;DHT22;6988;52.614;13.500;2022-09-01T00:20:57;14.70;99.90
13835;DHT22;6988;52.614;13.500;2022-09-01T00:25:49;14.70;99.90
13835;DHT22;6988;52.614;13.500;2022-09-01T00:30:41;14.70;99.90
13835;DHT22;6988;52.614;13.500;2022-09-01T00:35:33;14.60;99.90
13835;DHT22;6988;52.614;13.500;2022-09-01T00:40:26;14.60;99.90
13835;DHT22;6988;52.614;13.500;2022-09-01T00:45:19;14.50;99.90
13835;DHT22;6988;52.614;13.500;2022-09-01T00:50:13;14.50;99.90
13835;DHT22;6988;52.614;13.500;2022-09-01T00:55:10;14.40;99.90
13835;DHT22;6988;52.614;13.500;2022-09-01T01:00:09;14.40;99.90
13835;DHT22;6988;52.614;13.500;2022-09-01T01:05:07;14.40;99.90
13835;DHT22;6988;52.614;13.500;2022-09-01T01:09:59;14.30;99.90
13835;DHT22;6988;52.614;13.500;2022-09-01T01:14:51;14.20;99.90
13835;DHT22;6988;52.614;13.500;2022-09-01T01:19:47;14.20;99.90
13835;DHT22;6988;52.614;13.500;2022-09-01T01:25:01;14.20;99.90
13835;DHT22;6988;52.614;13.500;2022-09-01T01:29:53;14.10;99.90
13835;DHT22;6988;52.614;13.500;2022-09-01T01:34:46;14.20;99.90
13835;DHT22;6988;52.614;13.500;2022-09-01T01:39:37;14.10;99.90
13835;DHT22;6988;52.614;13.500;2022-09-01T01:44:36;14.00;99.90
13835;DHT22;6988;52.614;13.500;2022-09-01T01:49:30;14.00;99.90
13835;DHT22;6988;52.614;13.500;2022-09-01T01:54:21;14.00;99.90
13835;DHT22;6988;52.614;13.500;2022-09-01T01:59:15;13.90;99.90
13835;DHT22;6988;52.614;13.500;2022-09-01T02:04:10;13.90;99.90
13835;DHT22;6988;52.614;13.500;2022-09-01T02:09:07;13.90;99.90
13835;DHT22;6988;52.614;13.500;2022-09-01T02:13:59;13.90;99.90
13835;DHT22;6988;52.614;13.500;2022-09-01T02:18:51;13.80;99.90
13835;DHT22;6988;52.614;13.500;2022-09-01T02:23:46;13.80;99.90
13835;DHT22;6988;52.614;13.500;2022-09-01T02:28:39;13.70;99.90
13835;DHT22;6988;52.614;13.500;2022-09-01T02:33:32;13.60;99.90
13835;DHT22;6988;52.614;13.500;2022-09-01T02:38:27;13.60;99.90
13835;DHT22;6988;52.614;13.500;2022-09-01T02:43:24;13.50;99.90
13835;DHT22;6988;52.614;13.500;2022-09-01T02:48:17;13.40;99.90
13835;DHT22;6988;52.614;13.500;2022-09-01T02:53:12;13.40;99.90
13835;DHT22;6988;52.614;13.500;2022-09-01T02:58:05;13.30;99.90
13835;DHT22;6988;52.614;13.500;2022-09-01T03:03:02;13.20;99.90
13835;DHT22;6988;52.614;13.500;2022-09-01T03:07:56;13.20;99.90
13835;DHT22;6988;52.614;13.500;2022-09-01T03:12:49;13.10;99.90
13835;DHT22;6988;52.614;13.500;2022-09-01T03:17:41;13.10;99.90
13835;DHT22;6988;52.614;13.500;2022-09-01T03:22:34;13.00;99.90
13835;DHT22;6988;52.614;13.500;2022-09-01T03:27:26;12.90;99.90
13835;DHT22;6988;52.614;13.500;2022-09-01T03:32:18;12.80;99.90
13835;DHT22;6988;52.614;13.500;2022-09-01T03:37:10;12.80;99.90
13835;DHT22;6988;52.614;13.500;2022-09-01T03:42:04;12.70;99.90
13835;DHT22;6988;52.614;13.500;2022-09-01T03:46:58;12.60;99.90
13835;DHT22;6988;52.614;13.500;2022-09-01T03:51:52;12.60;99.90
13835;DHT22;6988;52.614;13.500;2022-09-01T03:56:44;12.50;99.90
13835;DHT22;6988;52.614;13.500;2022-09-01T04:01:42;12.40;99.90
13835;DHT22;6988;52.614;13.500;2022-09-01T04:06:36;12.30;99.90
13835;DHT22;6988;52.614;13.500;2022-09-01T04:11:28;12.30;99.90
13835;DHT22;6988;52.614;13.500;2022-09-01T04:16:22;12.30;99.90
13835;DHT22;6988;52.614;13.500;2022-09-01T04:21:34;12.20;99.90
13835;DHT22;6988;52.614;13.500;2022-09-01T04:26:27;12.30;99.90
13835;DHT22;6988;52.614;13.500;2022-09-01T04:31:21;12.30;99.90
13835;DHT22;6988;52.614;13.500;2022-09-01T04:36:16;12.20;99.90
13835;DHT22;6988;52.614;13.500;2022-09-01T04:41:12;12.20;99.90
13835;DHT22;6988;52.614;13.500;2022-09-01T04:46:07;12.20;99.90
13835;DHT22;6988;52.614;13.500;2022-09-01T04:51:00;12.20;99.90
13835;DHT22;6988;52.614;13.500;2022-09-01T04:56:16;12.10;99.90
13835;DHT22;6988;52.614;13.500;2022-09-01T05:01:16;12.20;99.90
13835;DHT22;6988;52.614;13.500;2022-09-01T05:06:12;12.20;99.90
13835;DHT22;6988;52.614;13.500;2022-09-01T05:11:10;12.20;99.90
13835;DHT22;6988;52.614;13.500;2022-09-01T05:16:11;12.20;99.90
13835;DHT22;6988;52.614;13.500;2022-09-01T05:21:08;12.20;99.90
13835;DHT22;6988;52.614;13.500;2022-09-01T05:26:01;12.30;99.90
13835;DHT22;6988;52.614;13.500;2022-09-01T05:30:54;12.30;99.90
13835;DHT22;6988;52.614;13.500;2022-09-01T05:35:54;12.40;99.90
13835;DHT22;6988;52.614;13.500;2022-09-01T05:40:54;12.50;99.90
13835;DHT22;6988;52.614;13.500;2022-09-01T05:45:47;12.60;99.90
13835;DHT22;6988;52.614;13.500;2022-09-01T05:50:40;12.60;99.90
13835;DHT22;6988;52.614;13.500;2022-09-01T05:55:36;12.70;99.90
13835;DHT22;6988;52.614;13.500;2022-09-01T06:00:28;12.90;99.90
13835;DHT22;6988;52.614;13.500;2022-09-01T06:05:24;13.00;99.90
13835;DHT22;6988;52.614;13.500;2022-09-01T06:10:16;13.20;99.90
13835;DHT22;6988;52.614;13.500;2022-09-01T06:15:10;13.30;99.90
13835;DHT22;6988;52.614;13.500;2022-09-01T06:20:07;13.60;99.90
13835;DHT22;6988;52.614;13.500;2022-09-01T06:25:01;13.90;99.90
13835;DHT22;6988;52.614;13.500;2022-09-01T06:29:58;14.20;99.90
13835;DHT22;6988;52.614;13.500;2022-09-01T06:34:52;14.50;99.90
13835;DHT22;6988;52.614;13.500;2022-09-01T06:39:43;15.00;99.90
13835;DHT22;6988;52.614;13.500;2022-09-01T06:44:38;15.30;99.90
13835;DHT22;6988;52.614;13.500;2022-09-01T06:49:32;15.60;99.90
13835;DHT22;6988;52.614;13.500;2022-09-01T06:54:26;16.00;99.90
13835;DHT22;6988;52.614;13.500;2022-09-01T06:59:19;16.30;99.90
13835;DHT22;6988;52.614;13.500;2022-09-01T07:04:15;16.70;99.90
13835;DHT22;6988;52.614;13.500;2022-09-01T07:09:14;17.00;99.90
13835;DHT22;6988;52.614;13.500;2022-09-01T07:14:11;17.30;99.90
13835;DHT22;6988;52.614;13.500;2022-09-01T07:19:06;17.80;99.90
13835;DHT22;6988;52.614;13.500;2022-09-01T07:24:12;18.10;99.90
13835;DHT22;6988;52.614;13.500;2022-09-01T07:29:29;18.60;99.90
13835;DHT22;6988;52.614;13.500;2022-09-01T07:34:21;18.80;99.90
13835;DHT22;6988;52.614;13.500;2022-09-01T07:39:14;19.20;99.90
13835;DHT22;6988;52.614;13.500;2022-09-01T07:44:17;19.30;99.90
13835;DHT22;6988;52.614;13.500;2022-09-01T07:49:34;19.60;99.90
13835;DHT22;6988;52.614;13.500;2022-09-01T07:54:27;20.00;99.90
13835;DHT22;6988;52.614;13.500;2022-09-01T07:59:21;20.00;99.90
13835;DHT22;6988;52.614;13.500;2022-09-01T08:04:17;20.20;99.90
13835;DHT22;6988;52.614;13.500;2022-09-01T08:09:13;20.50;99.90
13835;DHT22;6988;52.614;13.500;2022-09-01T08:14:06;21.00;99.90
13835;DHT22;6988;52.614;13.500;2022-09-01T08:18:58;21.40;99.90
13835;DHT22;6988;52.614;13.500;2022-09-01T08:24:19;21.50;99.90
13835;DHT22;6988;52.614;13.500;2022-09-01T08:29:11;22.00;99.90
13835;DHT22;6988;52.614;13.500;2022-09-01T08:34:06;22.20;99.90
13835;DHT22;6988;52.614;13.500;2022-09-01T08:38:58;22.40;99.90
13835;DHT22;6988;52.614;13.500;2022-09-01T08:44:02;22.70;99.90
13835;DHT22;6988;52.614;13.500;2022-09-01T08:49:07;22.90;99.90
13835;DHT22;6988;52.614;13.500;2022-09-01T08:54:25;23.00;99.90
13835;DHT22;6988;52.614;13.500;2022-09-01T08:59:26;23.00;99.90
13835;DHT22;6988;52.614;13.500;2022-09-01T09:04:46;22.90;99.90
13835;DHT22;6988;52.614;13.500;2022-09-01T09:09:52;23.10;99.90
13835;DHT22;6988;52.614;13.500;2022-09-01T09:15:01;23.40;99.90
13835;DHT22;6988;52.614;13.500;2022-09-01T09:19:59;23.30;99.90
13835;DHT22;6988;52.614;13.500;2022-09-01T09:24:56;23.70;99.90
13835;DHT22;6988;52.614;13.500;2022-09-01T09:29:55;24.00;99.90
13835;DHT22;6988;52.614;13.500;2022-09-01T09:34:48;24.50;99.90
13835;DHT22;6988;52.614;13.500;2022-09-01T09:39:41;25.20;99.90
13835;DHT22;6988;52.614;13.500;2022-09-01T09:44:32;25.60;99.90
13835;DHT22;6988;52.614;13.500;2022-09-01T09:49:28;26.10;99.90
13835;DHT22;6988;52.614;13.500;2022-09-01T09:54:24;26.00;99.90
13835;DHT22;6988;52.614;13.500;2022-09-01T09:59:22;26.10;99.90
13835;DHT22;6988;52.614;13.500;2022-09-01T10:04:37;26.20;99.90
13835;DHT22;6988;52.614;13.500;2022-09-01T10:09:34;26.00;99.90
13835;DHT22;6988;52.614;13.500;2022-09-01T10:14:32;25.60;97.70
13835;DHT22;6988;52.614;13.500;2022-09-01T10:19:33;24.80;99.90
13835;DHT22;6988;52.614;13.500;2022-09-01T10:24:33;25.20;98.90
13835;DHT22;6988;52.614;13.500;2022-09-01T10:29:29;25.50;99.90
13835;DHT22;6988;52.614;13.500;2022-09-01T10:34:26;25.80;99.90
13835;DHT22;6988;52.614;13.500;2022-09-01T10:39:23;24.90;99.40
13835;DHT22;6988;52.614;13.500;2022-09-01T10:44:21;24.70;99.80
13835;DHT22;6988;52.614;13.500;2022-09-01T10:54:55;25.20;99.90
13835;DHT22;6988;52.614;13.500;2022-09-01T10:59:51;25.40;97.50
13835;DHT22;6988;52.614;13.500;2022-09-01T11:05:12;25.80;93.30
13835;DHT22;6988;52.614;13.500;2022-09-01T11:10:29;25.60;95.80
13835;DHT22;6988;52.614;13.500;2022-09-01T11:15:39;24.70;93.80
13835;DHT22;6988;52.614;13.500;2022-09-01T11:20:35;24.90;95.90
13835;DHT22;6988;52.614;13.500;2022-09-01T11:25:36;25.50;94.30
13835;DHT22;6988;52.614;13.500;2022-09-01T11:30:40;24.90;93.80
13835;DHT22;6988;52.614;13.500;2022-09-01T11:35:42;24.40;94.20
13835;DHT22;6988;52.614;13.500;2022-09-01T11:40:37;23.80;96.70
13835;DHT22;6988;52.614;13.500;2022-09-01T11:45:30;23.60;99.90
13835;DHT22;6988;52.614;13.500;2022-09-01T11:50:27;24.10;99.80
13835;DHT22;6988;52.614;13.500;2022-09-01T11:55:29;23.80;99.90
13835;DHT22;6988;52.614;13.500;2022-09-01T12:00:27;23.50;99.90
13835;DHT22;6988;52.614;13.500;2022-09-01T12:05:29;23.20;99.90
13835;DHT22;6988;52.614;13.500;2022-09-01T12:10:28;23.40;99.90
13835;DHT22;6988;52.614;13.500;2022-09-01T12:15:25;24.20;99.90
13835;DHT22;6988;52.614;13.500;2022-09-01T12:20:27;25.00;99.50
13835;DHT22;6988;52.614;13.500;2022-09-01T12:25:24;25.50;99.90
13835;DHT22;6988;52.614;13.500;2022-09-01T12:30:19;25.80;98.90
13835;DHT22;6988;52.614;13.500;2022-09-01T12:35:18;25.80;97.10
13835;DHT22;6988;52.614;13.500;2022-09-01T12:40:34;26.20;96.60
13835;DHT22;6988;52.614;13.500;2022-09-01T12:45:37;26.50;94.80
13835;DHT22;6988;52.614;13.500;2022-09-01T12:50:42;27.00;92.10
13835;DHT22;6988;52.614;13.500;2022-09-01T12:55:37;26.60;93.80
13835;DHT22;6988;52.614;13.500;2022-09-01T13:00:30;25.70;92.20
13835;DHT22;6988;52.614;13.500;2022-09-01T13:05:27;24.80;96.90
13835;DHT22;6988;52.614;13.500;2022-09-01T13:10:21;24.30;96.00
13835;DHT22;6988;52.614;13.500;2022-09-01T13:15:18;23.90;96.20
13835;DHT22;6988;52.614;13.500;2022-09-01T13:20:11;23.60;99.10
13835;DHT22;6988;52.614;13.500;2022-09-01T13:25:04;23.50;99.90
13835;DHT22;6988;52.614;13.500;2022-09-01T13:29:58;23.30;99.60
13835;DHT22;6988;52.614;13.500;2022-09-01T13:34:52;23.20;99.90
13835;DHT22;6988;52.614;13.500;2022-09-01T13:39:44;23.30;99.90
13835;DHT22;6988;52.614;13.500;2022-09-01T13:44:36;23.20;99.90
13835;DHT22;6988;52.614;13.500;2022-09-01T13:49:28;23.10;99.90
13835;DHT22;6988;52.614;13.500;2022-09-01T13:54:21;23.20;99.90
13835;DHT22;6988;52.614;13.500;2022-09-01T13:59:13;23.20;99.50
13835;DHT22;6988;52.614;13.500;2022-09-01T14:04:05;23.20;97.10
13835;DHT22;6988;52.614;13.500;2022-09-01T14:08:57;23.10;99.00
13835;DHT22;6988;52.614;13.500;2022-09-01T14:13:50;23.30;99.90
13835;DHT22;6988;52.614;13.500;2022-09-01T14:18:42;23.30;99.80
13835;DHT22;6988;52.614;13.500;2022-09-01T14:23:33;23.30;97.50
13835;DHT22;6988;52.614;13.500;2022-09-01T14:28:25;23.20;99.90
13835;DHT22;6988;52.614;13.500;2022-09-01T14:33:18;23.30;99.90
13835;DHT22;6988;52.614;13.500;2022-09-01T14:38:13;23.10;99.90
13835;DHT22;6988;52.614;13.500;2022-09-01T14:43:07;23.20;96.80
13835;DHT22;6988;52.614;13.500;2022-09-01T14:48:03;23.30;99.90
13835;DHT22;6988;52.614;13.500;2022-09-01T14:52:58;23.40;99.90
13835;DHT22;6988;52.614;13.500;2022-09-01T14:57:52;23.20;99.70
13835;DHT22;6988;52.614;13.500;2022-09-01T15:02:44;23.00;99.90
13835;DHT22;6988;52.614;13.500;2022-09-01T15:07:37;22.90;99.90
13835;DHT22;6988;52.614;13.500;2022-09-01T15:12:30;22.70;99.90
13835;DHT22;6988;52.614;13.500;2022-09-01T15:17:22;22.60;99.90
13835;DHT22;6988;52.614;13.500;2022-09-01T15:22:14;22.50;99.90
13835;DHT22;6988;52.614;13.500;2022-09-01T15:27:05;22.40;99.90
13835;DHT22;6988;52.614;13.500;2022-09-01T15:31:59;22.40;99.90
13835;DHT22;6988;52.614;13.500;2022-09-01T15:36:51;22.50;99.90
13835;DHT22;6988;52.614;13.500;2022-09-01T15:41:43;22.60;99.90
13835;DHT22;6988;52.614;13.500;2022-09-01T15:46:36;22.50;99.90
13835;DHT22;6988;52.614;13.500;2022-09-01T15:51:33;22.30;99.90
13835;DHT22;6988;52.614;13.500;2022-09-01T15:56:27;22.10;99.90
13835;DHT22;6988;52.614;13.500;2022-09-01T16:01:20;21.80;99.90
13835;DHT22;6988;52.614;13.500;2022-09-01T16:06:12;21.70;99.90
13835;DHT22;6988;52.614;13.500;2022-09-01T16:11:06;21.70;99.90
13835;DHT22;6988;52.614;13.500;2022-09-01T16:16:08;21.70;99.90
13835;DHT22;6988;52.614;13.500;2022-09-01T16:21:25;21.60;99.90
13835;DHT22;6988;52.614;13.500;2022-09-01T16:26:26;21.40;99.90
13835;DHT22;6988;52.614;13.500;2022-09-01T16:31:21;21.10;99.90
13835;DHT22;6988;52.614;13.500;2022-09-01T16:36:27;20.80;99.90
13835;DHT22;6988;52.614;13.500;2022-09-01T16:41:37;20.60;99.90
13835;DHT22;6988;52.614;13.500;2022-09-01T16:46:42;20.50;99.90
13835;DHT22;6988;52.614;13.500;2022-09-01T16:51:50;20.40;99.90
13835;DHT22;6988;52.614;13.500;2022-09-01T16:56:51;20.30;99.90
13835;DHT22;6988;52.614;13.500;2022-09-01T17:01:59;20.10;99.90
13835;DHT22;6988;52.614;13.500;2022-09-01T17:07:05;20.00;99.90
13835;DHT22;6988;52.614;13.500;2022-09-01T17:12:24;19.90;99.90
13835;DHT22;6988;52.614;13.500;2022-09-01T17:17:29;19.80;99.90
13835;DHT22;6988;52.614;13.500;2022-09-01T17:22:24;19.60;99.90
13835;DHT22;6988;52.614;13.500;2022-09-01T17:27:19;19.50;99.90
13835;DHT22;6988;52.614;13.500;2022-09-01T17:32:26;19.40;99.90
13835;DHT22;6988;52.614;13.500;2022-09-01T17:37:37;19.30;99.90
13835;DHT22;6988;52.614;13.500;2022-09-01T17:42:42;19.10;99.90
13835;DHT22;6988;52.614;13.500;2022-09-01T17:47:49;19.00;99.90
13835;DHT22;6988;52.614;13.500;2022-09-01T17:52:55;18.80;99.90
13835;DHT22;6988;52.614;13.500;2022-09-01T17:58:01;18.70;99.90
13835;DHT22;6988;52.614;13.500;2022-09-01T18:03:11;18.60;99.90
13835;DHT22;6988;52.614;13.500;2022-09-01T18:08:24;18.50;99.90
13835;DHT22;6988;52.614;13.500;2022-09-01T18:13:27;18.40;99.90
13835;DHT22;6988;52.614;13.500;2022-09-01T18:18:26;18.20;99.90
13835;DHT22;6988;52.614;13.500;2022-09-01T18:23:23;18.10;99.90
13835;DHT22;6988;52.614;13.500;2022-09-01T18:28:16;18.00;99.90
13835;DHT22;6988;52.614;13.500;2022-09-01T18:33:23;17.80;99.90
13835;DHT22;6988;52.614;13.500;2022-09-01T18:38:26;17.70;99.90
13835;DHT22;6988;52.614;13.500;2022-09-01T18:43:30;17.60;99.90
13835;DHT22;6988;52.614;13.500;2022-09-01T18:48:44;17.50;99.90
13835;DHT22;6988;52.614;13.500;2022-09-01T18:53:48;17.40;99.90
13835;DHT22;6988;52.614;13.500;2022-09-01T18:58:52;17.30;99.90
13835;DHT22;6988;52.614;13.500;2022-09-01T19:03:56;17.20;99.90
13835;DHT22;6988;52.614;13.500;2022-09-01T19:09:06;17.10;99.90
13835;DHT22;6988;52.614;13.500;2022-09-01T19:14:10;17.00;99.90
13835;DHT22;6988;52.614;13.500;2022-09-01T19:19:18;16.90;99.90
13835;DHT22;6988;52.614;13.500;2022-09-01T19:24:25;16.80;99.90
13835;DHT22;6988;52.614;13.500;2022-09-01T19:29:24;16.60;99.90
13835;DHT22;6988;52.614;13.500;2022-09-01T19:34:24;16.60;99.90
13835;DHT22;6988;52.614;13.500;2022-09-01T19:39:21;16.40;99.90
13835;DHT22;6988;52.614;13.500;2022-09-01T19:44:19;16.40;99.90
13835;DHT22;6988;52.614;13.500;2022-09-01T19:49:30;16.30;99.90
13835;DHT22;6988;52.614;13.500;2022-09-01T19:54:32;16.20;99.90
13835;DHT22;6988;52.614;13.500;2022-09-01T19:59:46;16.10;99.90
13835;DHT22;6988;52.614;13.500;2022-09-01T20:04:50;16.00;99.90
13835;DHT22;6988;52.614;13.500;2022-09-01T20:09:51;15.90;99.90
13835;DHT22;6988;52.614;13.500;2022-09-01T20:15:02;15.80;99.90
13835;DHT22;6988;52.614;13.500;2022-09-01T20:20:06;15.70;99.90
13835;DHT22;6988;52.614;13.500;2022-09-01T20:25:02;15.70;99.90
13835;DHT22;6988;52.614;13.500;2022-09-01T20:30:03;15.50;99.90
13835;DHT22;6988;52.614;13.500;2022-09-01T20:35:08;15.40;99.90
13835;DHT22;6988;52.614;13.500;2022-09-01T20:40:07;15.40;99.90
13835;DHT22;6988;52.614;13.500;2022-09-01T20:45:08;15.30;99.90
13835;DHT22;6988;52.614;13.500;2022-09-01T20:50:09;15.20;99.90
13835;DHT22;6988;52.614;13.500;2022-09-01T20:55:08;15.10;99.90
13835;DHT22;6988;52.614;13.500;2022-09-01T21:00:06;15.10;99.90
13835;DHT22;6988;52.614;13.500;2022-09-01T21:05:17;15.00;99.90
13835;DHT22;6988;52.614;13.500;2022-09-01T21:10:22;15.00;99.90
13835;DHT22;6988;52.614;13.500;2022-09-01T21:15:29;14.80;99.90
13835;DHT22;6988;52.614;13.500;2022-09-01T21:20:38;14.80;99.90
13835;DHT22;6988;52.614;13.500;2022-09-01T21:25:42;14.70;99.90
13835;DHT22;6988;52.614;13.500;2022-09-01T21:30:34;14.60;99.90
13835;DHT22;6988;52.614;13.500;2022-09-01T21:35:26;14.60;99.90
13835;DHT22;6988;52.614;13.500;2022-09-01T21:40:21;14.50;99.90
13835;DHT22;6988;52.614;13.500;2022-09-01T22:04:03;14.00;99.90
13835;DHT22;6988;52.614;13.500;2022-09-01T22:08:55;13.90;99.90
13835;DHT22;6988;52.614;13.500;2022-09-01T22:13:50;13.80;99.90
13835;DHT22;6988;52.614;13.500;2022-09-01T22:18:42;13.70;99.90
13835;DHT22;6988;52.614;13.500;2022-09-01T22:23:35;13.70;99.90
13835;DHT22;6988;52.614;13.500;2022-09-01T22:28:28;13.60;99.90
13835;DHT22;6988;52.614;13.500;2022-09-01T22:33:21;13.60;99.90
13835;DHT22;6988;52.614;13.500;2022-09-01T22:38:13;13.60;99.90
13835;DHT22;6988;52.614;13.500;2022-09-01T22:43:07;13.60;99.90
13835;DHT22;6988;52.614;13.500;2022-09-01T22:47:59;13.60;99.90
13835;DHT22;6988;52.614;13.500;2022-09-01T22:52:51;13.60;99.90
13835;DHT22;6988;52.614;13.500;2022-09-01T22:57:42;13.50;99.90
13835;DHT22;6988;52.614;13.500;2022-09-01T23:02:36;13.50;99.90
13835;DHT22;6988;52.614;13.500;2022-09-01T23:07:27;13.40;99.90
13835;DHT22;6988;52.614;13.500;2022-09-01T23:12:19;13.40;99.90
13835;DHT22;6988;52.614;13.500;2022-09-01T23:17:11;13.30;99.90
13835;DHT22;6988;52.614;13.500;2022-09-01T23:22:04;13.30;99.90
13835;DHT22;6988;52.614;13.500;2022-09-01T23:26:56;13.20;99.90
13835;DHT22;6988;52.614;13.500;2022-09-01T23:31:47;13.20;99.90
13835;DHT22;6988;52.614;13.500;2022-09-01T23:36:40;13.10;99.90
13835;DHT22;6988;52.614;13.500;2022-09-01T23:41:35;13.10;99.90
13835;DHT22;6988;52.614;13.500;2022-09-01T23:46:31;13.10;99.90
13835;DHT22;6988;52.614;13.500;2022-09-01T23:51:25;13.10;99.90
13835;DHT22;6988;52.614;13.500;2022-09-01T23:56:19;13.00;99.90
